Terminal Aerodrome Forecast
Issued by NWS Jackson, KY

Home | Current Version | Previous Version | Text Only | Print | Product List | Glossary On
Versions: 1 2 3 4 5 6 7 8 9 10 11 12 13 14 15 16 17 18 19 20
000
FTUS43 KJKL 280913 AAB
TAFJKL
TAF AMD
KJKL 280913Z 2809/2906 VRB04KT P6SM SCT040
     FM281900 27004KT P6SM VCTS BKN035CB
     FM290200 VRB03KT P6SM SCT040=

USA.gov is the U.S. government's official web portal to all federal, state and local government web resources and services.